Time;durP1;ratioP1;P1;durP2;ratioP2;P2;SDS_P1;SDS_P2;PMS_P1;PMS_P2;Temp;Humidity;BMP_temperature;BMP_pressure;BME280_temperature;BME280_humidity;BME280_pressure;Samples;Min_cycle;Max_cycle;Signal;HPM_P1;HPM_P2
2023/11/03 00:01:58;;;;;;;6.70;4.00;;;;;;;14.08;70.01;96358.91;224549;1292;22552;-80
2023/11/03 00:07:18;;;;;;;6.30;3.90;;;;;;;13.87;71.12;96345.84;223117;1298;24683;-80
2023/11/03 00:13:17;;;;;;;;;;;;;;;;;;;;;
2023/11/03 00:19:00;;;;;;;;;;;;;;;;;;;;;
2023/11/03 00:24:17;;;;;;;3.90;2.20;;;;;;;13.57;72.28;96331.17;223692;1292;22559;-80
2023/11/03 00:29:27;;;;;;;4.00;1.80;;;;;;;13.55;72.58;96329.21;224624;1292;22556;-81
2023/11/03 00:34:36;;;;;;;3.20;2.40;;;;;;;13.56;72.93;96315.36;224640;1292;22566;-81
2023/11/03 00:39:58;;;;;;;3.50;2.20;;;;;;;13.60;72.81;96307.89;224518;1286;22579;-81
2023/11/03 00:46:02;;;;;;;2.50;2.00;;;;;;;13.60;72.67;96305.60;224494;1292;22556;-82
2023/11/03 00:51:26;;;;;;;3.20;1.80;;;;;;;13.58;72.66;96293.81;224567;1292;22560;-81
2023/11/03 00:57:20;;;;;;;3.10;2.50;;;;;;;13.55;72.78;96289.15;224397;1292;22559;-81
2023/11/03 01:03:28;;;;;;;3.40;2.40;;;;;;;13.54;72.91;96287.83;224665;1292;25291;-81
2023/11/03 01:09:22;;;;;;;;;;;;;;;;;;;;;
2023/11/03 01:14:32;;;;;;;4.40;2.40;;;;;;;13.47;73.15;96277.98;224558;1292;22559;-81
2023/11/03 01:19:47;;;;;;;1.90;1.60;;;;;;;13.44;73.11;96264.93;224384;1292;22572;-81
2023/11/03 01:24:52;;;;;;;2.90;2.00;;;;;;;13.48;73.11;96265.09;224523;1292;21751;-81
2023/11/03 01:30:14;;;;;;;3.40;1.60;;;;;;;13.55;72.94;96255.52;224598;1292;22578;-81
2023/11/03 01:35:42;;;;;;;2.70;1.50;;;;;;;13.64;72.72;96244.41;224496;1292;24806;-81
2023/11/03 01:40:51;;;;;;;3.30;1.90;;;;;;;13.74;72.43;96234.25;224497;1292;22563;-81
2023/11/03 01:46:13;;;;;;;3.10;1.60;;;;;;;13.82;72.45;96224.33;224092;1292;279836;-81
2023/11/03 01:52:04;;;;;;;2.20;1.50;;;;;;;13.88;72.08;96215.88;224636;1292;24278;-81
2023/11/03 01:57:33;;;;;;;3.30;1.40;;;;;;;13.91;72.03;96212.42;224451;1292;22597;-82
2023/11/03 02:03:16;;;;;;;;;;;;;;;;;;;;;
2023/11/03 02:09:04;;;;;;;3.10;1.70;;;;;;;13.96;71.69;96198.52;224525;1291;22551;-81
2023/11/03 02:14:36;;;;;;;2.10;1.50;;;;;;;13.98;71.90;96200.22;224540;1286;22559;-82
2023/11/03 02:20:14;;;;;;;3.50;1.40;;;;;;;14.03;72.14;96206.15;224454;1292;25782;-82
2023/11/03 02:25:21;;;;;;;1.80;1.50;;;;;;;14.07;72.13;96207.84;224572;1292;22546;-82
2023/11/03 02:30:47;;;;;;;2.20;1.50;;;;;;;14.11;71.83;96198.56;224488;1292;22571;-82
2023/11/03 02:35:55;;;;;;;1.60;1.40;;;;;;;14.13;71.65;96187.66;224601;1292;22559;-81
2023/11/03 02:41:29;;;;;;;;;;;;;;;;;;;;;
2023/11/03 02:47:08;;;;;;;;;;;;;;;;;;;;;
2023/11/03 02:52:50;;;;;;;4.20;1.40;;;;;;;14.21;71.20;96168.88;224516;1292;22585;-82
2023/11/03 02:58:07;;;;;;;2.30;1.70;;;;;;;14.22;71.12;96161.92;224528;1286;22556;-82
2023/11/03 03:03:30;;;;;;;2.40;2.20;;;;;;;14.14;71.24;96160.58;224498;1292;22556;-82
2023/11/03 03:08:42;;;;;;;2.80;2.50;;;;;;;13.94;71.26;96148.75;224532;1292;22569;-81
2023/11/03 03:14:28;;;;;;;;;;;;;;;;;;;;;
2023/11/03 03:20:24;;;;;;;3.50;2.30;;;;;;;13.56;72.07;96118.62;224506;1292;24270;-81
2023/11/03 03:25:32;;;;;;;2.20;2.00;;;;;;;13.51;72.83;96110.10;224486;1292;23176;-81
2023/11/03 03:30:48;;;;;;;2.00;1.60;;;;;;;13.48;72.81;96104.88;224398;1292;22566;-81
2023/11/03 03:36:16;;;;;;;1.70;1.50;;;;;;;13.53;72.72;96098.15;224400;1292;22571;-81
2023/11/03 03:42:12;;;;;;;1.40;1.20;;;;;;;13.62;72.59;96088.73;224593;1270;22698;-81
2023/11/03 03:47:45;;;;;;;1.60;1.50;;;;;;;13.70;72.60;96076.20;224559;1292;24853;-81
2023/11/03 03:53:05;;;;;;;2.70;0.80;;;;;;;13.78;72.13;96058.60;224538;1292;22586;-82
2023/11/03 03:58:16;;;;;;;0.90;0.80;;;;;;;13.89;72.14;96045.15;224519;1292;22586;-81
2023/11/03 04:03:19;;;;;;;1.60;0.90;;;;;;;13.97;71.81;96043.17;224460;1273;22555;-81
2023/11/03 04:08:56;;;;;;;0.80;0.80;;;;;;;14.06;71.43;96034.98;224370;1273;22611;-82
2023/11/03 04:14:32;;;;;;;2.20;1.20;;;;;;;14.19;71.23;96024.95;224550;1292;22595;-81
2023/11/03 04:20:11;;;;;;;;;;;;;;;;;;;;;
2023/11/03 04:25:53;;;;;;;1.80;1.10;;;;;;;14.37;70.60;96016.15;224615;1290;22593;-82
2023/11/03 04:31:34;;;;;;;1.50;0.90;;;;;;;14.44;70.58;96016.10;224560;1292;22588;-81
2023/11/03 04:36:57;;;;;;;;;;;;;;;;;;;;;
2023/11/03 04:42:41;;;;;;;;;;;;;;;;;;;;;
2023/11/03 04:48:15;;;;;;;1.30;1.00;;;;;;;14.49;70.65;96005.33;224607;1292;22647;-81
2023/11/03 04:53:25;;;;;;;2.40;1.00;;;;;;;14.46;70.79;95999.56;224589;1292;22582;-81
2023/11/03 04:59:11;;;;;;;1.20;1.10;;;;;;;14.40;70.86;95993.23;224545;1292;25307;-81
2023/11/03 05:04:41;;;;;;;;;;;;;;;;;;;;;
2023/11/03 05:10:06;;;;;;;1.80;1.00;;;;;;;14.31;71.26;95986.81;224525;1292;24374;-81
2023/11/03 05:15:53;;;;;;;1.20;1.10;;;;;;;14.27;71.53;95983.45;224496;1292;22585;-81
2023/11/03 05:21:00;;;;;;;1.30;1.20;;;;;;;14.27;71.59;95982.50;224227;1292;22636;-81
2023/11/03 05:26:39;;;;;;;2.80;1.50;;;;;;;14.29;71.84;95975.24;224226;1295;22583;-81
2023/11/03 05:32:04;;;;;;;3.20;1.80;;;;;;;14.34;71.85;95960.98;224257;1295;23133;-81
2023/11/03 05:37:21;;;;;;;2.30;1.50;;;;;;;14.36;71.42;95968.14;224310;1289;22559;-82
2023/11/03 05:42:29;;;;;;;2.60;1.40;;;;;;;14.35;71.34;95970.96;224209;1294;22626;-82
2023/11/03 05:47:51;;;;;;;2.50;1.20;;;;;;;14.36;71.48;95977.27;224259;1295;22571;-82
2023/11/03 05:52:54;;;;;;;1.60;1.20;;;;;;;14.42;71.36;95983.16;224651;1292;22639;-81
2023/11/03 05:57:57;;;;;;;2.80;1.20;;;;;;;14.47;71.25;95982.34;224562;1287;22571;-81
2023/11/03 06:03:16;;;;;;;1.90;1.30;;;;;;;14.51;71.15;95994.16;224413;1292;22564;-81
2023/11/03 06:08:37;;;;;;;1.40;1.30;;;;;;;14.55;71.13;95988.30;224652;1292;22625;-82
2023/11/03 06:13:54;;;;;;;2.10;1.40;;;;;;;14.58;71.06;95994.66;224624;1292;22587;-81
2023/11/03 06:19:21;;;;;;;1.50;1.20;;;;;;;14.61;71.08;95996.91;224456;1284;22597;-81
2023/11/03 06:24:59;;;;;;;1.70;1.20;;;;;;;14.66;71.28;95998.67;224662;1292;22563;-81
2023/11/03 06:30:47;;;;;;;;;;;;;;;;;;;;;
2023/11/03 06:35:59;;;;;;;1.70;1.30;;;;;;;14.73;71.03;96004.07;224666;1292;22563;-81
2023/11/03 06:41:04;;;;;;;2.40;1.50;;;;;;;14.74;71.20;95999.01;224652;1292;22559;-82
2023/11/03 06:46:10;;;;;;;1.50;1.40;;;;;;;14.74;71.06;95995.11;224547;1292;22608;-81
2023/11/03 06:51:19;;;;;;;1.80;1.20;;;;;;;14.74;71.10;95990.92;224218;1286;22582;-81
2023/11/03 06:56:43;;;;;;;;;;;;;;;;;;;;;
2023/11/03 07:01:52;;;;;;;3.70;1.30;;;;;;;14.71;71.44;95981.55;224002;1269;22572;-82
2023/11/03 07:07:07;;;;;;;2.70;1.50;;;;;;;14.71;71.49;95980.96;224088;1288;22559;-82
2023/11/03 07:12:12;;;;;;;2.90;1.80;;;;;;;14.73;71.66;95984.18;224087;1292;22929;-83
2023/11/03 07:17:41;;;;;;;;;;;;;;;;;;;;;
2023/11/03 07:23:07;;;;;;;1.90;1.60;;;;;;;14.84;71.47;95981.77;224013;1286;22852;-81
2023/11/03 07:28:16;;;;;;;2.60;1.40;;;;;;;14.88;71.13;95975.56;223847;1285;22572;-82
2023/11/03 07:33:34;;;;;;;2.70;1.40;;;;;;;14.93;71.10;95969.30;223979;1283;22617;-81
2023/11/03 07:38:36;;;;;;;1.60;1.50;;;;;;;14.96;70.89;95971.86;223868;1285;22606;-80
2023/11/03 07:43:39;;;;;;;1.80;1.40;;;;;;;14.99;70.58;95986.05;223799;1280;22939;-80
2023/11/03 07:48:44;;;;;;;2.10;1.50;;;;;;;15.01;70.46;95995.08;223942;1286;22556;-81
2023/11/03 07:53:53;;;;;;;2.90;1.80;;;;;;;15.02;70.66;95994.48;223912;1285;22816;-79
2023/11/03 07:58:59;;;;;;;1.70;1.50;;;;;;;15.01;70.42;95985.19;223634;1275;22559;-81
2023/11/03 08:04:10;;;;;;;2.40;1.90;;;;;;;14.94;70.53;95980.28;223751;1283;22611;-80
2023/11/03 08:09:14;;;;;;;2.70;2.10;;;;;;;14.91;70.71;95978.94;223957;1270;22660;-79
2023/11/03 08:14:17;;;;;;;4.00;2.60;;;;;;;14.90;70.88;95981.65;223795;1273;22561;-79
2023/11/03 08:19:19;;;;;;;4.00;3.10;;;;;;;14.92;70.88;95984.14;223767;1285;25093;-80
2023/11/03 08:24:24;;;;;;;4.40;3.00;;;;;;;14.95;71.01;95979.96;223814;1273;22840;-80
2023/11/03 08:29:27;;;;;;;6.00;3.60;;;;;;;14.95;71.01;95981.19;223872;1279;22754;-79
2023/11/03 08:34:31;;;;;;;5.10;3.40;;;;;;;14.98;71.03;95974.02;223914;1267;22567;-81
2023/11/03 08:39:46;;;;;;;5.30;3.00;;;;;;;15.03;70.91;95962.20;224278;1286;22597;-83
2023/11/03 08:45:00;;;;;;;4.30;3.00;;;;;;;15.04;70.92;95951.80;223952;1276;22565;-81
2023/11/03 08:50:11;;;;;;;5.10;2.80;;;;;;;15.05;70.82;95946.96;224352;1280;22631;-81
2023/11/03 08:55:19;;;;;;;4.40;3.00;;;;;;;15.04;70.94;95933.45;224144;1286;22672;-82
2023/11/03 09:00:56;;;;;;;;;;;;;;;;;;;;;
2023/11/03 09:06:11;;;;;;;6.30;2.90;;;;;;;14.95;71.36;95938.37;224042;1289;22604;-82
2023/11/03 09:11:27;;;;;;;7.00;4.10;;;;;;;14.90;71.59;95941.39;223939;1291;22552;-82
2023/11/03 09:16:39;;;;;;;5.60;3.40;;;;;;;14.90;72.30;95941.52;224360;1291;22869;-82
2023/11/03 09:21:43;;;;;;;4.10;3.30;;;;;;;14.83;72.46;95936.39;224328;1287;22520;-81
2023/11/03 09:27:01;;;;;;;4.60;3.70;;;;;;;14.72;72.74;95925.30;224276;1291;22602;-80
2023/11/03 09:32:23;;;;;;;4.90;3.70;;;;;;;14.57;73.31;95911.23;224286;1291;22563;-81
2023/11/03 09:38:15;;;;;;;7.70;4.20;;;;;;;14.45;73.95;95900.10;224357;1291;22552;-85
2023/11/03 09:43:22;;;;;;;6.30;4.10;;;;;;;14.39;74.25;95893.30;223462;1296;22561;-82
2023/11/03 09:48:26;;;;;;;6.60;4.90;;;;;;;14.32;74.17;95889.60;223501;1296;22575;-80
2023/11/03 09:53:52;;;;;;;11.00;7.20;;;;;;;14.25;74.73;95893.66;223317;1295;22572;-80
2023/11/03 09:59:31;;;;;;;;;;;;;;;;;;;;;
2023/11/03 10:04:34;;;;;;;7.70;5.90;;;;;;;14.00;75.98;95883.45;223164;1297;21850;-80
2023/11/03 10:09:50;;;;;;;12.40;6.40;;;;;;;13.86;76.79;95868.99;223555;1292;24254;-72
2023/11/03 10:14:58;;;;;;;7.20;6.40;;;;;;;13.72;77.54;95848.75;224227;1282;22556;-73
2023/11/03 10:20:03;;;;;;;7.60;6.50;;;;;;;13.56;78.29;95837.27;224389;1285;22566;-71
2023/11/03 10:25:20;;;;;;;;;;;;;;;;;;;;;
2023/11/03 10:31:03;;;;;;;;;;;;;;;;;;;;;
2023/11/03 10:36:57;;;;;;;10.20;8.40;;;;;;;13.06;80.01;95815.37;224186;1283;22555;-74
2023/11/03 10:42:39;;;;;;;11.40;8.50;;;;;;;12.98;80.52;95819.50;223348;1298;22576;-74
2023/11/03 10:49:06;;;;;;;;;;;;;;;;;;;;;
2023/11/03 10:55:25;;;;;;;;;;;;;;;;;;;;;
2023/11/03 11:00:59;;;;;;;;;;;;;;;;;;;;;
2023/11/03 11:07:14;;;;;;;;;;;;;;;;;;;;;
2023/11/03 11:13:42;;;;;;;;;;;;;;;;;;;;;
2023/11/03 11:20:32;;;;;;;;;;;;;;;;;;;;;
2023/11/03 11:27:49;;;;;;;14.10;10.10;;;;;;;12.73;83.07;95847.23;223775;1292;22575;-80
2023/11/03 11:34:00;;;;;;;12.50;10.90;;;;;;;12.72;83.44;95853.80;224343;1292;22571;-80
2023/11/03 11:39:53;;;;;;;;;;;;;;;;;;;;;
2023/11/03 11:45:53;;;;;;;12.20;9.60;;;;;;;12.67;83.69;95845.29;224325;1292;22569;-80
2023/11/03 11:51:26;;;;;;;11.80;10.60;;;;;;;12.69;83.88;95820.91;224171;1277;22584;-80
2023/11/03 11:56:56;;;;;;;12.30;10.10;;;;;;;12.69;84.17;95811.06;224427;1273;22555;-79
2023/11/03 12:02:37;;;;;;;10.20;8.80;;;;;;;12.66;84.02;95807.84;224310;1282;22565;-79
2023/11/03 12:07:49;;;;;;;10.80;8.70;;;;;;;12.65;84.08;95780.98;223779;1286;22591;-79
2023/11/03 12:19:31;;;;;;;11.20;9.10;;;;;;;12.71;84.55;95731.52;223807;1289;22622;-78
2023/11/03 12:24:44;;;;;;;10.30;8.10;;;;;;;12.65;84.49;95734.67;223941;1286;24253;-74
2023/11/03 12:30:06;;;;;;;10.00;8.20;;;;;;;12.62;84.72;95726.44;224000;1282;22649;-83
2023/11/03 12:35:20;;;;;;;13.60;11.00;;;;;;;12.67;84.91;95706.54;224060;1291;22583;-78
2023/11/03 12:40:50;;;;;;;17.40;13.40;;;;;;;12.68;85.09;95688.05;224298;1286;22684;-80
2023/11/03 12:46:12;;;;;;;13.30;11.50;;;;;;;12.60;85.14;95651.52;224475;1280;22572;-79
2023/11/03 12:51:32;;;;;;;;;;;;;;;12.56;85.13;95654.73;224469;1286;22685;-78
2023/11/03 12:57:12;;;;;;;17.50;13.60;;;;;;;12.59;85.63;95687.29;224505;1288;22555;-78
2023/11/03 13:02:39;;;;;;;16.80;14.10;;;;;;;12.66;85.83;95702.73;224289;1289;22696;-79
2023/11/03 13:08:14;;;;;;;17.20;14.50;;;;;;;12.72;86.02;95720.23;224189;1287;22654;-78
2023/11/03 13:14:01;;;;;;;22.00;14.90;;;;;;;12.78;86.08;95711.38;224324;1292;22559;-74
2023/11/03 13:19:14;;;;;;;19.10;14.50;;;;;;;12.80;85.81;95701.04;224026;1291;22672;-77
2023/11/03 13:24:44;;;;;;;19.60;16.00;;;;;;;12.81;86.11;95692.71;224024;1287;22566;-77
2023/11/03 13:30:26;;;;;;;;;;;;;;;;;;;;;
2023/11/03 13:35:55;;;;;;;19.40;15.30;;;;;;;12.79;86.10;95701.67;223633;1276;25539;-76
2023/11/03 13:41:17;;;;;;;19.80;15.10;;;;;;;12.78;86.11;95697.13;223669;1289;22582;-76
2023/11/03 13:47:06;;;;;;;18.80;15.60;;;;;;;12.80;86.31;95705.23;223759;1294;173384;-78
2023/11/03 13:52:11;;;;;;;20.60;16.30;;;;;;;12.81;86.39;95710.92;223622;1289;22569;-77
2023/11/03 13:57:22;;;;;;;22.00;18.90;;;;;;;12.84;86.65;95709.27;223763;1296;25369;-77
2023/11/03 14:03:20;;;;;;;;;;;;;;;;;;;;;
2023/11/03 14:08:38;;;;;;;31.70;24.20;;;;;;;12.83;86.50;95670.23;224294;1282;22579;-75
2023/11/03 14:14:44;;;;;;;21.60;17.70;;;;;;;12.81;86.57;95660.48;223912;1293;22739;-75
2023/11/03 14:20:57;;;;;;;18.10;15.60;;;;;;;12.75;86.77;95663.73;223522;1286;22573;-75
2023/11/03 14:26:14;;;;;;;21.60;17.20;;;;;;;12.68;86.67;95659.34;223908;1293;22600;-74
2023/11/03 14:32:07;;;;;;;20.70;16.50;;;;;;;12.61;86.91;95650.42;223749;1289;22575;-73
2023/11/03 14:37:51;;;;;;;;;;;;;;;;;;;;;
2023/11/03 14:43:22;;;;;;;20.60;16.30;;;;;;;12.51;87.06;95642.56;224039;1293;22652;-74
2023/11/03 14:48:52;;;;;;;20.40;15.30;;;;;;;12.50;87.47;95646.39;222285;1300;22579;-74
2023/11/03 14:53:56;;;;;;;17.30;14.90;;;;;;;12.47;87.13;95656.21;221732;1301;22571;-74
2023/11/03 14:59:33;;;;;;;24.20;17.90;;;;;;;12.47;87.47;95663.38;221404;1290;22611;-74
2023/11/03 15:05:00;;;;;;;28.10;21.70;;;;;;;12.50;87.60;95678.06;221134;1301;22662;-74
2023/11/03 15:10:21;;;;;;;;;;;;;;;;;;;;;
2023/11/03 15:15:27;;;;;;;30.70;23.60;;;;;;;12.54;87.61;95673.91;222322;1298;22554;-72
2023/11/03 15:20:33;;;;;;;28.70;22.50;;;;;;;12.55;87.65;95669.66;223842;1295;22521;-74
2023/11/03 15:25:52;;;;;;;27.40;21.50;;;;;;;12.56;87.80;95665.79;223449;1295;22725;-73
2023/11/03 15:31:04;;;;;;;25.70;20.30;;;;;;;12.57;87.81;95669.13;224159;1292;24327;-73
2023/11/03 15:36:10;;;;;;;16.80;13.90;;;;;;;12.57;87.66;95702.59;224195;1292;22572;-73
2023/11/03 15:41:33;;;;;;;16.00;12.00;;;;;;;12.59;87.60;95695.44;224639;1292;25999;-72
2023/11/03 15:47:03;;;;;;;11.80;8.20;;;;;;;12.60;87.69;95689.50;224273;1295;22558;-73
2023/11/03 15:52:30;;;;;;;11.50;8.10;;;;;;;12.61;87.43;95690.23;223680;1296;22637;-76
2023/11/03 15:57:39;;;;;;;10.10;7.80;;;;;;;12.60;87.34;95683.89;223362;1296;22558;-73
2023/11/03 16:02:56;;;;;;;11.50;8.00;;;;;;;12.59;87.37;95686.01;223549;1296;22611;-74
2023/11/03 16:08:08;;;;;;;10.40;7.10;;;;;;;12.59;87.18;95684.80;223320;1292;26228;-73
2023/11/03 16:13:35;;;;;;;9.40;6.60;;;;;;;12.58;86.92;95676.21;223603;1295;22560;-73
2023/11/03 16:18:40;;;;;;;7.50;5.50;;;;;;;12.57;86.69;95672.83;224234;1295;22546;-74
2023/11/03 16:23:58;;;;;;;7.30;5.30;;;;;;;12.54;86.69;95677.92;224072;1292;22553;-72
2023/11/03 16:29:28;;;;;;;7.60;4.90;;;;;;;12.51;86.59;95682.55;224246;1292;22549;-74
2023/11/03 16:35:04;;;;;;;;;;;;;;;;;;;;;
2023/11/03 16:40:39;;;;;;;7.30;4.70;;;;;;;12.43;86.58;95686.17;224551;1292;25596;-74
2023/11/03 16:45:59;;;;;;;7.10;4.30;;;;;;;12.41;86.59;95695.40;224346;1292;22562;-73
2023/11/03 16:51:46;;;;;;;;;;;;;;;;;;;;;
2023/11/03 16:57:10;;;;;;;10.20;5.70;;;;;;;12.32;86.45;95706.94;223787;1295;22556;-74
2023/11/03 17:02:16;;;;;;;8.30;5.60;;;;;;;12.27;86.60;95708.46;223724;1296;22553;-74
2023/11/03 17:07:51;;;;;;;11.00;5.90;;;;;;;12.23;86.81;95720.39;223709;1296;23029;-74
2023/11/03 17:13:01;;;;;;;13.00;7.90;;;;;;;12.20;86.91;95729.19;223935;1292;22598;-74
2023/11/03 17:18:08;;;;;;;24.90;14.60;;;;;;;12.14;86.80;95756.96;224309;1292;22586;-75
2023/11/03 17:23:42;;;;;;;15.90;10.20;;;;;;;12.03;86.74;95768.70;223828;1292;22573;-73
2023/11/03 17:28:51;;;;;;;8.80;5.50;;;;;;;11.92;87.37;95783.40;223560;1296;22663;-73
2023/11/03 17:34:20;;;;;;;7.50;4.80;;;;;;;11.79;87.66;95808.52;223827;1295;24654;-73
2023/11/03 17:39:33;;;;;;;2.70;1.90;;;;;;;11.54;86.69;95821.29;223583;1295;22546;-73
2023/11/03 17:45:02;;;;;;;1.60;1.40;;;;;;;11.22;85.78;95837.64;223927;1292;22562;-74
2023/11/03 17:50:30;;;;;;;1.90;1.10;;;;;;;10.93;85.73;95843.85;224600;1289;22571;-72
2023/11/03 17:55:49;;;;;;;2.00;1.20;;;;;;;10.67;85.42;95848.98;224586;1292;22572;-73
2023/11/03 18:00:57;;;;;;;1.60;1.10;;;;;;;10.47;85.39;95867.93;224490;1292;22563;-74
2023/11/03 18:06:01;;;;;;;2.20;1.40;;;;;;;10.30;85.45;95884.38;224313;1292;22983;-73
2023/11/03 18:12:06;;;;;;;3.70;2.20;;;;;;;10.15;85.62;95891.98;224639;1290;24261;-73
2023/11/03 18:17:17;;;;;;;1.40;0.90;;;;;;;10.02;85.66;95896.08;224333;1292;22566;-74
2023/11/03 18:22:20;;;;;;;2.10;1.10;;;;;;;9.94;85.43;95904.89;224310;1292;22559;-73
2023/11/03 18:28:05;;;;;;;;;;;;;;;;;;;;;
2023/11/03 18:33:12;;;;;;;1.20;0.90;;;;;;;9.79;85.52;95918.61;224238;1292;22574;-73
2023/11/03 18:38:20;;;;;;;1.10;0.90;;;;;;;9.69;85.26;95930.40;224504;1292;22559;-73
2023/11/03 18:43:34;;;;;;;1.20;0.80;;;;;;;9.62;85.51;95946.02;224520;1292;22563;-72
2023/11/03 18:48:36;;;;;;;1.20;0.90;;;;;;;9.54;85.48;95956.05;224511;1292;22570;-74
2023/11/03 18:53:40;;;;;;;1.40;1.00;;;;;;;9.46;85.39;95965.43;224128;1292;22575;-75
2023/11/03 18:59:09;;;;;;;1.30;1.00;;;;;;;9.42;85.43;95967.96;224542;1292;22547;-74
2023/11/03 19:04:32;;;;;;;2.90;1.20;;;;;;;9.39;85.79;95976.27;224587;1291;22562;-73
2023/11/03 19:10:05;;;;;;;1.60;1.10;;;;;;;9.37;85.46;95994.37;224022;1295;22591;-73
2023/11/03 19:15:24;;;;;;;2.40;1.50;;;;;;;9.34;85.15;95996.98;224243;1292;22618;-73
2023/11/03 19:20:42;;;;;;;1.70;1.60;;;;;;;9.28;85.23;96001.66;224096;1280;22827;-73
2023/11/03 19:25:57;;;;;;;3.10;1.90;;;;;;;9.22;85.21;96017.81;224254;1295;22615;-73
2023/11/03 19:31:04;;;;;;;1.60;1.50;;;;;;;9.13;85.33;96039.06;224077;1295;22584;-73
2023/11/03 19:36:15;;;;;;;2.00;1.60;;;;;;;9.05;84.86;96057.30;224603;1292;22589;-73
2023/11/03 19:41:32;;;;;;;2.10;1.60;;;;;;;8.98;84.95;96069.05;224513;1292;23114;-74
2023/11/03 19:46:40;;;;;;;1.80;1.30;;;;;;;8.92;84.61;96087.61;224595;1289;25299;-74
2023/11/03 19:52:47;;;;;;;1.90;1.50;;;;;;;8.87;84.66;96109.58;224403;1292;22555;-73
2023/11/03 19:57:49;;;;;;;1.70;1.40;;;;;;;8.81;84.45;96132.65;224544;1290;22566;-72
2023/11/03 20:02:57;;;;;;;2.00;1.30;;;;;;;8.72;84.52;96137.73;224473;1292;22573;-73
2023/11/03 20:08:09;;;;;;;1.20;1.10;;;;;;;8.60;84.45;96148.20;224590;1292;22540;-73
2023/11/03 20:13:16;;;;;;;1.40;1.30;;;;;;;8.50;84.41;96174.76;224467;1281;24705;-73
2023/11/03 20:18:30;;;;;;;2.20;1.50;;;;;;;8.41;84.13;96179.89;224448;1292;22559;-73
2023/11/03 20:23:35;;;;;;;1.70;1.40;;;;;;;8.33;84.65;96199.47;224447;1292;22581;-73
2023/11/03 20:28:45;;;;;;;1.50;1.30;;;;;;;8.27;84.82;96210.72;224465;1292;22603;-74
2023/11/03 20:34:04;;;;;;;3.70;2.00;;;;;;;8.23;85.00;96235.98;224253;1280;22567;-73
2023/11/03 20:39:26;;;;;;;1.30;0.90;;;;;;;8.17;84.62;96263.23;224381;1292;22556;-74
2023/11/03 20:44:53;;;;;;;0.80;0.60;;;;;;;8.01;84.24;96278.51;224379;1292;22604;-73
2023/11/03 20:50:39;;;;;;;1.70;0.60;;;;;;;7.75;84.87;96311.14;223936;1289;23404;-74
2023/11/03 20:56:12;;;;;;;0.90;0.80;;;;;;;7.54;85.73;96332.75;222783;1299;22630;-75
2023/11/03 21:01:22;;;;;;;1.10;0.90;;;;;;;7.35;85.05;96353.38;222883;1292;22618;-74
2023/11/03 21:06:35;;;;;;;0.80;0.80;;;;;;;7.17;85.17;96362.31;223093;1296;22563;-73
2023/11/03 21:11:41;;;;;;;1.50;0.80;;;;;;;7.01;85.28;96367.37;223472;1296;22570;-73
2023/11/03 21:16:45;;;;;;;1.60;0.90;;;;;;;6.85;85.58;96373.00;223796;1296;22570;-73
2023/11/03 21:21:53;;;;;;;1.50;1.00;;;;;;;6.73;85.71;96385.77;223776;1295;22631;-74
2023/11/03 21:27:19;;;;;;;1.90;1.20;;;;;;;6.64;86.01;96400.95;224090;1292;22571;-73
2023/11/03 21:32:39;;;;;;;2.00;1.00;;;;;;;6.63;86.53;96402.77;224581;1292;22559;-73
2023/11/03 21:37:42;;;;;;;3.30;1.60;;;;;;;6.63;86.79;96422.88;224500;1292;22632;-74
2023/11/03 21:42:52;;;;;;;4.40;1.90;;;;;;;6.61;86.56;96433.52;224543;1292;22610;-73
2023/11/03 21:47:55;;;;;;;1.10;0.60;;;;;;;6.60;86.91;96442.55;224339;1290;22685;-73
2023/11/03 21:53:00;;;;;;;1.40;0.80;;;;;;;6.51;87.26;96455.59;224563;1289;22566;-73
2023/11/03 21:58:07;;;;;;;2.10;0.70;;;;;;;6.39;87.49;96470.65;224600;1292;22610;-73
2023/11/03 22:03:10;;;;;;;1.20;0.70;;;;;;;6.25;87.93;96483.78;224563;1287;22570;-73
2023/11/03 22:08:16;;;;;;;0.90;0.70;;;;;;;6.16;87.82;96491.54;224321;1292;22563;-73
2023/11/03 22:13:34;;;;;;;1.70;1.00;;;;;;;6.09;88.15;96492.73;224461;1292;25270;-72
2023/11/03 22:18:37;;;;;;;1.40;1.00;;;;;;;6.03;88.12;96495.48;224474;1288;22570;-73
2023/11/03 22:23:42;;;;;;;1.70;1.00;;;;;;;5.99;88.00;96509.55;224531;1292;22559;-73
2023/11/03 22:28:49;;;;;;;1.50;1.10;;;;;;;5.97;88.28;96513.56;224639;1284;22628;-73
2023/11/03 22:33:52;;;;;;;1.60;1.10;;;;;;;5.97;88.28;96524.45;224595;1290;22569;-73
2023/11/03 22:38:54;;;;;;;3.70;1.60;;;;;;;5.98;88.25;96523.11;224479;1292;22573;-73
2023/11/03 22:43:57;;;;;;;3.30;2.20;;;;;;;6.00;88.33;96524.42;224462;1292;22563;-73
2023/11/03 22:49:02;;;;;;;3.40;1.80;;;;;;;6.05;88.91;96527.27;224454;1292;22585;-73
2023/11/03 22:54:07;;;;;;;2.80;1.90;;;;;;;6.08;88.22;96534.00;224359;1292;22606;-73
2023/11/03 22:59:27;;;;;;;;;;;;;;;;;;;;;
2023/11/03 23:04:32;;;;;;;1.60;1.30;;;;;;;6.14;88.03;96545.31;224513;1292;22641;-73
2023/11/03 23:09:39;;;;;;;2.10;1.20;;;;;;;6.16;87.83;96553.09;224468;1286;25929;-73
2023/11/03 23:14:45;;;;;;;2.10;1.10;;;;;;;6.16;87.65;96554.66;224365;1292;22566;-73
2023/11/03 23:19:48;;;;;;;1.50;1.30;;;;;;;6.17;87.51;96559.30;224428;1292;22548;-73
2023/11/03 23:24:59;;;;;;;1.40;1.00;;;;;;;6.18;87.62;96567.04;224468;1291;22612;-73
2023/11/03 23:30:18;;;;;;;1.80;1.20;;;;;;;6.19;87.12;96578.52;224575;1292;22625;-73
2023/11/03 23:35:21;;;;;;;1.40;1.30;;;;;;;6.20;87.39;96585.56;224507;1286;25277;-73
2023/11/03 23:40:24;;;;;;;1.60;1.40;;;;;;;6.20;87.24;96585.52;224499;1292;22562;-73
2023/11/03 23:45:47;;;;;;;2.40;1.60;;;;;;;6.20;87.23;96597.99;224456;1292;23043;-73
2023/11/03 23:51:14;;;;;;;3.50;1.90;;;;;;;6.20;87.68;96604.45;224450;1292;24001;-73
2023/11/03 23:56:22;;;;;;;2.40;2.00;;;;;;;6.22;87.71;96617.78;224346;1292;22570;-73
